RJOH(METAR)
08/23 04:00
METAR RJOH 221900Z 23006KT 9999 FEW015 BKN020 BKN040 25/24 Q1006 RMK
1CU015 5CU020 7CU040 A2973=
戻る
トップページへ戻る
IMOC Co,.Ltd.